Time;durP1;ratioP1;P1;durP2;ratioP2;P2;SDS_P1;SDS_P2;PMS_P1;PMS_P2;Temp;Humidity;BMP_temperature;BMP_pressure;BME280_temperature;BME280_humidity;BME280_pressure;Samples;Min_cycle;Max_cycle;Signal;HPM_P1;HPM_P2
2021/05/10 00:00:50;;;;;;;3.88;1.65;;;;;;;;;;5100201;28;20111;-80
2021/05/10 00:03:17;;;;;;;4.80;2.30;;;;;;;;;;5100078;28;20028;-81
2021/05/10 00:05:43;;;;;;;2.83;1.75;;;;;;;;;;5098874;28;20024;-81
2021/05/10 00:08:09;;;;;;;4.45;1.70;;;;;;;;;;5099660;28;20065;-81
2021/05/10 00:10:36;;;;;;;3.40;1.70;;;;;;;;;;5099874;28;20406;-84
2021/05/10 00:13:03;;;;;;;5.43;2.05;;;;;;;;;;5099289;28;20028;-83
2021/05/10 00:15:29;;;;;;;1.98;1.65;;;;;;;;;;5099039;28;20073;-82
2021/05/10 00:18:04;;;;;;;4.05;2.25;;;;;;;;;;5099763;28;20410;-82
2021/05/10 00:20:35;;;;;;;3.15;1.90;;;;;;;;;;5098732;28;20038;-82
2021/05/10 00:23:02;;;;;;;6.10;2.05;;;;;;;;;;5099947;28;20028;-82
2021/05/10 00:25:28;;;;;;;8.68;2.17;;;;;;;;;;5099634;28;20406;-82
2021/05/10 00:27:54;;;;;;;6.22;2.28;;;;;;;;;;5099578;28;20067;-83
2021/05/10 00:30:21;;;;;;;4.55;2.30;;;;;;;;;;5098484;28;20081;-83
2021/05/10 00:32:47;;;;;;;4.47;2.28;;;;;;;;;;5099507;28;20024;-82
2021/05/10 00:35:14;;;;;;;2.55;1.90;;;;;;;;;;5099443;28;20024;-81
2021/05/10 00:37:40;;;;;;;4.28;1.95;;;;;;;;;;5099262;28;20453;-81
2021/05/10 00:40:10;;;;;;;6.03;2.22;;;;;;;;;;5099359;28;20410;-81
2021/05/10 00:42:37;;;;;;;5.85;1.80;;;;;;;;;;5098249;28;20039;-81
2021/05/10 00:45:03;;;;;;;9.95;2.30;;;;;;;;;;5099126;28;20030;-80
2021/05/10 00:47:30;;;;;;;4.32;2.08;;;;;;;;;;5098072;28;20326;-80
2021/05/10 00:49:56;;;;;;;3.47;1.80;;;;;;;;;;5099118;28;20111;-84
2021/05/10 00:52:22;;;;;;;7.35;2.33;;;;;;;;;;5098177;28;20027;-84
2021/05/10 00:54:49;;;;;;;4.07;1.80;;;;;;;;;;5097597;28;20073;-84
2021/05/10 00:57:15;;;;;;;4.55;2.03;;;;;;;;;;5098398;28;20032;-82
2021/05/10 00:59:41;;;;;;;4.57;1.90;;;;;;;;;;5098239;28;20032;-83
2021/05/10 01:02:07;;;;;;;8.15;2.65;;;;;;;;;;5098989;28;20317;-83
2021/05/10 01:04:34;;;;;;;3.85;1.90;;;;;;;;;;5098894;28;20017;-82
2021/05/10 01:07:00;;;;;;;3.60;1.80;;;;;;;;;;5098760;28;20081;-82
2021/05/10 01:09:26;;;;;;;6.53;1.90;;;;;;;;;;5098753;28;20032;-82
2021/05/10 01:11:52;;;;;;;9.70;2.40;;;;;;;;;;5097713;28;20410;-82
2021/05/10 01:14:18;;;;;;;4.53;2.00;;;;;;;;;;5097479;28;20024;-82
2021/05/10 01:16:44;;;;;;;5.22;2.05;;;;;;;;;;5098716;28;20022;-82
2021/05/10 01:19:11;;;;;;;6.35;1.98;;;;;;;;;;5098491;28;20406;-82
2021/05/10 01:21:37;;;;;;;4.10;2.13;;;;;;;;;;5098607;28;20348;-81
2021/05/10 01:24:04;;;;;;;3.60;1.90;;;;;;;;;;5098541;28;20342;-81
2021/05/10 01:26:30;;;;;;;6.13;1.88;;;;;;;;;;5098404;28;20024;-83
2021/05/10 01:28:56;;;;;;;4.57;2.10;;;;;;;;;;5098755;28;20379;-83
2021/05/10 01:31:22;;;;;;;3.85;2.03;;;;;;;;;;5098047;28;20103;-83
2021/05/10 01:33:48;;;;;;;2.72;1.80;;;;;;;;;;5098514;28;20020;-83
2021/05/10 01:36:14;;;;;;;4.15;1.98;;;;;;;;;;5097824;28;20031;-83
2021/05/10 01:38:40;;;;;;;4.38;1.90;;;;;;;;;;5097219;28;20122;-83
2021/05/10 01:41:07;;;;;;;3.35;1.70;;;;;;;;;;5098483;28;20059;-84
2021/05/10 01:43:33;;;;;;;5.25;1.88;;;;;;;;;;5097325;28;20024;-82
2021/05/10 01:45:59;;;;;;;3.67;1.92;;;;;;;;;;5097177;28;20020;-84
2021/05/10 01:48:25;;;;;;;8.57;1.77;;;;;;;;;;5098126;28;20463;-84
2021/05/10 01:50:51;;;;;;;5.32;1.63;;;;;;;;;;5098144;28;20103;-84
2021/05/10 01:53:17;;;;;;;4.00;1.80;;;;;;;;;;5097094;28;20032;-84
2021/05/10 01:55:44;;;;;;;4.90;1.67;;;;;;;;;;5097916;28;20052;-82
2021/05/10 01:58:10;;;;;;;3.50;1.75;;;;;;;;;;5097776;28;20024;-82
2021/05/10 02:00:38;;;;;;;6.50;1.90;;;;;;;;;;5097979;28;20493;-82
2021/05/10 02:03:05;;;;;;;5.68;1.75;;;;;;;;;;5097735;28;20028;-82
2021/05/10 02:05:32;;;;;;;6.10;2.08;;;;;;;;;;5097271;28;20119;-83
2021/05/10 02:07:59;;;;;;;4.80;1.70;;;;;;;;;;5097492;28;20071;-82
2021/05/10 02:10:30;;;;;;;6.50;1.75;;;;;;;;;;5096385;28;20069;-82
2021/05/10 02:12:57;;;;;;;3.77;2.03;;;;;;;;;;5097718;28;20351;-82
2021/05/10 02:15:24;;;;;;;5.28;1.95;;;;;;;;;;5097871;28;20272;-83
2021/05/10 02:17:50;;;;;;;4.75;1.70;;;;;;;;;;5096489;28;20028;-82
2021/05/10 02:20:17;;;;;;;6.45;1.65;;;;;;;;;;5097633;28;20197;-83
2021/05/10 02:22:50;;;;;;;8.38;1.88;;;;;;;;;;5097637;28;20035;-82
2021/05/10 02:25:21;;;;;;;3.75;1.40;;;;;;;;;;5097765;28;20028;-83
2021/05/10 02:27:47;;;;;;;5.93;1.70;;;;;;;;;;5096527;28;20031;-84
2021/05/10 02:30:13;;;;;;;6.68;1.83;;;;;;;;;;5096450;28;20486;-84
2021/05/10 02:32:40;;;;;;;4.28;1.60;;;;;;;;;;5097579;28;20020;-85
2021/05/10 02:35:06;;;;;;;3.95;1.65;;;;;;;;;;5097657;28;20329;-83
2021/05/10 02:37:32;;;;;;;3.85;1.67;;;;;;;;;;5097334;28;20436;-82
2021/05/10 02:39:58;;;;;;;3.30;1.70;;;;;;;;;;5097208;28;20055;-81
2021/05/10 02:42:24;;;;;;;4.57;1.80;;;;;;;;;;5096325;28;20418;-83
2021/05/10 02:44:50;;;;;;;5.35;2.05;;;;;;;;;;5097413;28;20464;-84
2021/05/10 02:47:16;;;;;;;5.90;1.70;;;;;;;;;;5097286;28;20424;-83
2021/05/10 02:49:42;;;;;;;3.72;1.45;;;;;;;;;;5097371;28;20051;-83
2021/05/10 02:52:08;;;;;;;5.55;1.77;;;;;;;;;;5096214;28;20016;-84
2021/05/10 02:54:34;;;;;;;2.88;1.70;;;;;;;;;;5097581;28;20094;-83
2021/05/10 02:57:00;;;;;;;9.40;1.67;;;;;;;;;;5097306;28;20024;-82
2021/05/10 02:59:26;;;;;;;4.60;1.55;;;;;;;;;;5096035;28;20028;-82
2021/05/10 03:01:52;;;;;;;3.60;1.70;;;;;;;;;;5096853;28;20031;-80
2021/05/10 03:04:18;;;;;;;7.25;1.77;;;;;;;;;;5096971;28;20031;-83
2021/05/10 03:06:44;;;;;;;5.85;1.73;;;;;;;;;;5095684;28;20043;-83
2021/05/10 03:09:10;;;;;;;3.17;2.05;;;;;;;;;;5096075;28;20056;-83
2021/05/10 03:11:36;;;;;;;4.95;1.92;;;;;;;;;;5096097;28;20024;-82
2021/05/10 03:14:02;;;;;;;4.75;2.00;;;;;;;;;;5096978;28;20024;-82
2021/05/10 03:16:28;;;;;;;3.97;1.92;;;;;;;;;;5096532;28;20020;-83
2021/05/10 03:18:54;;;;;;;5.80;2.63;;;;;;;;;;5100976;28;20333;-83
2021/05/10 03:21:21;;;;;;;8.75;2.35;;;;;;;;;;5100817;28;20035;-83
2021/05/10 03:23:47;;;;;;;3.63;2.10;;;;;;;;;;5101025;28;20036;-82
2021/05/10 03:26:13;;;;;;;7.72;2.28;;;;;;;;;;5101167;28;20103;-82
2021/05/10 03:28:39;;;;;;;6.50;2.30;;;;;;;;;;5101055;28;20031;-82
2021/05/10 03:31:05;;;;;;;5.75;2.20;;;;;;;;;;5099660;28;20028;-82
2021/05/10 03:33:31;;;;;;;7.70;2.30;;;;;;;;;;5099382;28;20024;-82
2021/05/10 03:35:57;;;;;;;6.88;2.25;;;;;;;;;;5100608;28;20330;-83
2021/05/10 03:38:23;;;;;;;5.90;2.10;;;;;;;;;;5100870;28;20390;-83
2021/05/10 03:40:49;;;;;;;6.13;2.58;;;;;;;;;;5100606;28;20024;-84
2021/05/10 03:43:15;;;;;;;13.68;2.95;;;;;;;;;;5100894;28;20039;-84
2021/05/10 03:45:41;;;;;;;6.10;2.17;;;;;;;;;;5100857;28;20028;-84
2021/05/10 03:48:07;;;;;;;5.82;2.22;;;;;;;;;;5100546;28;20028;-83
2021/05/10 03:50:33;;;;;;;6.47;2.28;;;;;;;;;;5100374;28;20016;-84
2021/05/10 03:52:59;;;;;;;5.00;2.30;;;;;;;;;;5100412;28;20028;-84
2021/05/10 03:55:26;;;;;;;4.18;2.05;;;;;;;;;;5100570;28;20024;-84
2021/05/10 03:57:53;;;;;;;9.43;2.38;;;;;;;;;;5100550;28;20089;-84
2021/05/10 04:00:20;;;;;;;7.78;2.10;;;;;;;;;;5099712;28;20032;-82
2021/05/10 04:02:46;;;;;;;12.88;2.60;;;;;;;;;;5100392;28;20025;-82
2021/05/10 04:05:36;;;;;;;5.57;2.75;;;;;;;;;;5100030;28;20024;-82
2021/05/10 04:16:02;;;;;;;4.68;1.98;;;;;;;;;;5078071;28;20028;-84
2021/05/10 04:18:28;;;;;;;4.45;2.00;;;;;;;;;;5077754;28;20032;-84
2021/05/10 04:20:54;;;;;;;2.85;1.88;;;;;;;;;;5078051;28;20136;-83
2021/05/10 04:23:20;;;;;;;6.40;1.65;;;;;;;;;;5077965;28;20029;-84
2021/05/10 04:25:47;;;;;;;4.28;2.15;;;;;;;;;;5077980;28;20043;-84
2021/05/10 04:28:14;;;;;;;2.78;1.65;;;;;;;;;;5077700;28;20123;-83
2021/05/10 04:30:40;;;;;;;5.88;2.03;;;;;;;;;;5060752;28;20032;-82
2021/05/10 04:33:06;;;;;;;3.42;1.60;;;;;;;;;;5077361;28;20117;-82
2021/05/10 04:35:33;;;;;;;2.78;1.80;;;;;;;;;;5077258;28;20078;-82
2021/05/10 04:38:00;;;;;;;4.75;2.03;;;;;;;;;;5077358;28;20029;-83
2021/05/10 04:40:27;;;;;;;3.03;1.85;;;;;;;;;;5077549;28;20384;-85
2021/05/10 04:42:53;;;;;;;2.53;1.40;;;;;;;;;;5077723;28;20025;-84
2021/05/10 04:45:19;;;;;;;7.28;1.90;;;;;;;;;;5060608;28;20033;-84
2021/05/10 04:47:47;;;;;;;3.78;1.65;;;;;;;;;;5099119;28;20414;-82
2021/05/10 04:50:14;;;;;;;7.05;2.38;;;;;;;;;;5085070;28;20322;-79
2021/05/10 04:52:40;;;;;;;3.03;1.65;;;;;;;;;;5091836;28;20028;-79
2021/05/10 04:55:07;;;;;;;2.90;1.95;;;;;;;;;;5099265;28;20114;-79
2021/05/10 04:57:34;;;;;;;3.95;1.75;;;;;;;;;;5099143;28;20031;-79
2021/05/10 05:00:00;;;;;;;8.48;1.67;;;;;;;;;;5098828;28;20051;-79
2021/05/10 05:02:26;;;;;;;8.30;1.75;;;;;;;;;;5097773;28;20036;-79
2021/05/10 05:04:53;;;;;;;5.28;1.70;;;;;;;;;;5098700;28;20031;-79
2021/05/10 05:07:19;;;;;;;3.60;1.23;;;;;;;;;;5098389;28;20056;-79
2021/05/10 05:09:45;;;;;;;3.13;2.00;;;;;;;;;;5097691;28;20028;-79
2021/05/10 05:12:11;;;;;;;8.07;1.42;;;;;;;;;;5097566;28;20028;-79
2021/05/10 05:14:37;;;;;;;3.88;1.52;;;;;;;;;;5098528;28;20020;-79
2021/05/10 05:17:03;;;;;;;4.53;1.40;;;;;;;;;;5097398;28;20111;-79
2021/05/10 05:19:29;;;;;;;5.15;1.50;;;;;;;;;;5098406;28;20021;-79
2021/05/10 05:21:59;;;;;;;6.43;2.85;;;;;;;;;;5098672;28;20072;-80
2021/05/10 05:24:25;;;;;;;3.50;1.52;;;;;;;;;;5098214;28;20082;-80
2021/05/10 05:26:51;;;;;;;7.00;1.65;;;;;;;;;;5098528;28;20055;-81
2021/05/10 05:29:20;;;;;;;4.88;1.30;;;;;;;;;;5098245;28;20506;-80
2021/05/10 05:31:46;;;;;;;5.32;1.63;;;;;;;;;;5098158;28;20430;-80
2021/05/10 05:34:12;;;;;;;5.57;1.65;;;;;;;;;;5098489;28;20028;-80
2021/05/10 05:36:38;;;;;;;3.83;1.75;;;;;;;;;;5098446;28;20027;-80
2021/05/10 05:39:07;;;;;;;4.63;1.33;;;;;;;;;;5097712;28;20020;-80
2021/05/10 05:41:33;;;;;;;6.82;2.03;;;;;;;;;;5098163;28;20405;-80
2021/05/10 05:43:59;;;;;;;5.53;1.83;;;;;;;;;;5097255;28;20032;-80
2021/05/10 05:46:27;;;;;;;7.50;2.20;;;;;;;;;;5097882;28;20039;-80
2021/05/10 05:48:54;;;;;;;11.32;4.07;;;;;;;;;;5096935;28;20024;-80
2021/05/10 05:51:20;;;;;;;3.70;2.22;;;;;;;;;;5097912;28;20035;-80
2021/05/10 05:53:46;;;;;;;5.07;2.00;;;;;;;;;;5098102;28;20024;-80
2021/05/10 05:56:12;;;;;;;6.38;2.05;;;;;;;;;;5101255;28;20047;-80
2021/05/10 05:58:38;;;;;;;7.53;1.92;;;;;;;;;;5113830;28;20019;-80
2021/05/10 06:01:04;;;;;;;6.30;2.28;;;;;;;;;;5118089;28;20024;-80
2021/05/10 06:03:30;;;;;;;5.78;2.72;;;;;;;;;;5118142;28;20027;-80
2021/05/10 06:05:57;;;;;;;4.20;2.03;;;;;;;;;;5116848;28;20051;-80
2021/05/10 06:08:23;;;;;;;10.98;2.33;;;;;;;;;;5117954;28;20413;-80
2021/05/10 06:10:50;;;;;;;7.20;2.30;;;;;;;;;;5117761;28;20024;-80
2021/05/10 06:13:16;;;;;;;4.95;2.33;;;;;;;;;;5117907;28;20030;-80
2021/05/10 06:15:42;;;;;;;4.95;2.10;;;;;;;;;;5117760;28;20020;-80
2021/05/10 06:18:09;;;;;;;11.07;2.38;;;;;;;;;;5117921;28;20332;-78
2021/05/10 06:20:35;;;;;;;5.53;2.20;;;;;;;;;;5118136;28;20034;-81
2021/05/10 06:23:02;;;;;;;6.93;2.20;;;;;;;;;;5117833;28;20405;-81
2021/05/10 06:25:28;;;;;;;8.38;2.80;;;;;;;;;;5117799;28;20034;-82
2021/05/10 06:27:54;;;;;;;6.72;2.10;;;;;;;;;;5117786;28;20352;-81
2021/05/10 06:30:21;;;;;;;7.15;2.03;;;;;;;;;;5116505;28;20019;-81
2021/05/10 06:32:49;;;;;;;5.07;1.88;;;;;;;;;;5116989;28;20038;-81
2021/05/10 06:35:15;;;;;;;7.10;2.67;;;;;;;;;;5117777;28;20043;-81
2021/05/10 06:37:42;;;;;;;10.10;2.55;;;;;;;;;;5117864;28;20028;-81
2021/05/10 06:40:08;;;;;;;5.13;2.17;;;;;;;;;;5117570;28;20039;-81
2021/05/10 06:42:34;;;;;;;11.38;2.65;;;;;;;;;;5117765;28;20024;-81
2021/05/10 06:45:02;;;;;;;7.32;2.08;;;;;;;;;;5117569;28;20024;-81
2021/05/10 06:47:28;;;;;;;5.22;2.20;;;;;;;;;;5117426;28;20028;-81
2021/05/10 06:49:54;;;;;;;6.38;2.47;;;;;;;;;;5116070;28;20115;-81
2021/05/10 06:52:21;;;;;;;5.72;2.22;;;;;;;;;;5119787;28;20092;-81
2021/05/10 06:54:47;;;;;;;5.63;2.38;;;;;;;;;;5121701;28;20015;-81
2021/05/10 06:57:13;;;;;;;4.22;2.20;;;;;;;;;;5121436;28;20023;-81
2021/05/10 06:59:39;;;;;;;6.60;2.17;;;;;;;;;;5121456;28;20060;-81
2021/05/10 07:02:06;;;;;;;10.55;2.53;;;;;;;;;;5121572;28;20020;-81
2021/05/10 07:04:32;;;;;;;6.07;2.20;;;;;;;;;;5121489;27;20019;-81
2021/05/10 07:06:58;;;;;;;8.90;2.25;;;;;;;;;;5121338;28;20046;-81
2021/05/10 07:09:24;;;;;;;5.13;2.40;;;;;;;;;;5121525;28;20041;-80
2021/05/10 07:11:50;;;;;;;6.07;2.83;;;;;;;;;;5121371;28;20024;-81
2021/05/10 07:14:16;;;;;;;9.27;3.03;;;;;;;;;;5120347;28;20090;-80
2021/05/10 07:16:43;;;;;;;4.13;2.65;;;;;;;;;;5121299;28;20019;-81
2021/05/10 07:19:09;;;;;;;6.18;3.20;;;;;;;;;;5121501;28;20110;-81
2021/05/10 07:21:36;;;;;;;7.28;2.42;;;;;;;;;;5121497;28;20028;-80
2021/05/10 07:24:02;;;;;;;11.27;3.58;;;;;;;;;;5121421;27;20122;-80
2021/05/10 07:26:29;;;;;;;5.38;2.30;;;;;;;;;;5120415;27;20166;-81
2021/05/10 07:28:55;;;;;;;4.07;2.70;;;;;;;;;;5121108;27;20028;-80
2021/05/10 07:31:21;;;;;;;8.38;3.50;;;;;;;;;;5120971;28;20043;-80
2021/05/10 07:33:47;;;;;;;5.35;2.92;;;;;;;;;;5120803;28;20024;-81
2021/05/10 07:36:13;;;;;;;8.80;3.00;;;;;;;;;;5120737;28;20448;-80
2021/05/10 07:38:39;;;;;;;7.85;3.15;;;;;;;;;;5121142;28;20024;-80
2021/05/10 07:41:05;;;;;;;12.57;5.78;;;;;;;;;;5120836;28;20028;-81
2021/05/10 07:43:31;;;;;;;4.85;2.10;;;;;;;;;;5120902;28;20061;-81
2021/05/10 07:45:58;;;;;;;4.05;2.45;;;;;;;;;;5119753;28;20031;-81
2021/05/10 07:48:24;;;;;;;7.57;2.53;;;;;;;;;;5120169;28;20051;-81
2021/05/10 07:50:50;;;;;;;9.65;3.03;;;;;;;;;;5120548;28;20436;-81
2021/05/10 07:53:16;;;;;;;8.43;2.67;;;;;;;;;;5120656;28;20051;-81
2021/05/10 07:55:42;;;;;;;8.23;2.90;;;;;;;;;;5119621;28;20020;-81
2021/05/10 07:58:08;;;;;;;8.40;4.13;;;;;;;;;;5120690;28;20016;-79
2021/05/10 08:00:40;;;;;;;8.00;4.55;;;;;;;;;;5119745;27;20144;-78
2021/05/10 08:03:07;;;;;;;5.30;3.65;;;;;;;;;;5119918;28;20028;-77
2021/05/10 08:05:37;;;;;;;12.20;3.95;;;;;;;;;;5120580;28;20031;-77
2021/05/10 08:08:03;;;;;;;9.32;4.25;;;;;;;;;;5120215;28;20051;-77
2021/05/10 08:10:29;;;;;;;12.15;4.43;;;;;;;;;;5119355;28;20298;-77
2021/05/10 08:12:56;;;;;;;9.95;3.00;;;;;;;;;;5120304;28;20114;-77
2021/05/10 08:15:22;;;;;;;6.55;3.10;;;;;;;;;;5120242;28;20024;-77
2021/05/10 08:17:48;;;;;;;7.35;3.58;;;;;;;;;;5119422;27;20064;-77
2021/05/10 08:20:15;;;;;;;13.57;2.97;;;;;;;;;;5120090;28;20459;-77
2021/05/10 08:22:42;;;;;;;7.95;2.75;;;;;;;;;;5120112;28;20028;-77
2021/05/10 08:25:09;;;;;;;9.18;3.72;;;;;;;;;;5119085;28;20043;-78
2021/05/10 08:27:35;;;;;;;7.38;3.30;;;;;;;;;;5120213;28;20027;-77
2021/05/10 08:30:04;;;;;;;9.05;4.95;;;;;;;;;;5119309;28;20396;-77
2021/05/10 08:32:30;;;;;;;6.88;2.90;;;;;;;;;;5119105;28;20405;-78
2021/05/10 08:34:56;;;;;;;9.18;3.72;;;;;;;;;;5119896;28;20473;-78
2021/05/10 08:37:22;;;;;;;6.75;3.08;;;;;;;;;;5119943;28;20020;-78
2021/05/10 08:39:48;;;;;;;8.15;3.67;;;;;;;;;;5118809;28;20034;-78
2021/05/10 08:42:16;;;;;;;4.72;2.80;;;;;;;;;;5119713;28;20398;-78
2021/05/10 08:44:42;;;;;;;5.07;3.63;;;;;;;;;;5119590;28;20015;-78
2021/05/10 08:47:08;;;;;;;8.52;3.30;;;;;;;;;;5119290;28;20039;-78
2021/05/10 08:49:35;;;;;;;11.50;3.53;;;;;;;;;;5119552;28;20094;-78
2021/05/10 08:52:01;;;;;;;12.13;5.18;;;;;;;;;;5119599;28;20058;-78
2021/05/10 08:54:29;;;;;;;9.88;4.00;;;;;;;;;;5119411;28;20030;-78
2021/05/10 08:56:55;;;;;;;8.63;3.80;;;;;;;;;;5119542;28;20023;-81
2021/05/10 08:59:22;;;;;;;5.65;3.47;;;;;;;;;;5119280;28;20040;-82
2021/05/10 09:01:48;;;;;;;4.30;2.72;;;;;;;;;;5119096;28;20060;-81
2021/05/10 09:04:31;;;;;;;5.18;3.33;;;;;;;;;;5119384;28;20020;-78
2021/05/10 09:07:13;;;;;;;9.35;4.00;;;;;;;;;;5118931;28;20055;-78
2021/05/10 09:09:57;;;;;;;8.18;3.03;;;;;;;;;;5119032;28;20027;-78
2021/05/10 09:12:23;;;;;;;12.23;3.28;;;;;;;;;;5118174;28;20027;-80
2021/05/10 09:14:52;;;;;;;9.82;3.00;;;;;;;;;;5117029;28;20321;-81
2021/05/10 09:17:19;;;;;;;8.15;3.53;;;;;;;;;;5119016;28;20313;-81
2021/05/10 09:19:48;;;;;;;10.05;2.80;;;;;;;;;;5119300;28;20118;-81
2021/05/10 09:22:14;;;;;;;9.85;3.75;;;;;;;;;;5118979;28;20099;-81
2021/05/10 09:24:51;;;;;;;9.68;3.88;;;;;;;;;;5118991;28;20027;-81
2021/05/10 09:27:22;;;;;;;8.70;3.83;;;;;;;;;;5119026;28;20044;-81
2021/05/10 09:29:53;;;;;;;9.48;3.33;;;;;;;;;;5118943;28;20030;-81
2021/05/10 09:32:26;;;;;;;7.75;4.28;;;;;;;;;;5118820;28;20015;-81
2021/05/10 09:35:27;;;;;;;11.68;3.85;;;;;;;;;;5118756;28;20020;-81
2021/05/10 09:37:57;;;;;;;7.75;3.78;;;;;;;;;;5076211;28;20064;-81
2021/05/10 09:40:24;;;;;;;8.55;5.40;;;;;;;;;;5076117;28;20087;-81
2021/05/10 09:42:54;;;;;;;8.77;3.85;;;;;;;;;;5076141;28;20028;-81
2021/05/10 09:45:34;;;;;;;9.70;3.80;;;;;;;;;;5075940;28;20052;-81
2021/05/10 09:48:03;;;;;;;9.68;3.30;;;;;;;;;;5075778;28;20044;-80
2021/05/10 09:50:48;;;;;;;8.00;3.42;;;;;;;;;;5075843;28;20062;-81
2021/05/10 09:53:19;;;;;;;9.70;4.50;;;;;;;;;;5075908;28;20112;-81
2021/05/10 09:55:48;;;;;;;11.25;3.83;;;;;;;;;;5075885;28;20101;-81
2021/05/10 09:58:15;;;;;;;8.55;3.67;;;;;;;;;;5059012;28;20355;-80
2021/05/10 10:00:41;;;;;;;8.55;3.75;;;;;;;;;;5059079;28;20029;-80
2021/05/10 10:03:24;;;;;;;9.55;4.88;;;;;;;;;;5058511;28;20040;-81
2021/05/10 10:05:52;;;;;;;9.60;4.03;;;;;;;;;;5075417;28;20069;-81
2021/05/10 10:08:18;;;;;;;9.80;3.10;;;;;;;;;;5075306;28;20052;-81
2021/05/10 10:10:44;;;;;;;5.95;2.78;;;;;;;;;;5060975;28;20032;-81
2021/05/10 10:13:11;;;;;;;9.40;4.38;;;;;;;;;;5118020;28;20024;-82
2021/05/10 10:15:38;;;;;;;11.55;3.08;;;;;;;;;;5118159;28;20047;-82
2021/05/10 10:18:04;;;;;;;7.40;3.30;;;;;;;;;;5118073;28;20126;-81
2021/05/10 10:20:31;;;;;;;8.73;3.35;;;;;;;;;;5118005;28;20031;-81
2021/05/10 10:22:57;;;;;;;9.18;3.10;;;;;;;;;;5117957;28;20030;-82
2021/05/10 10:25:23;;;;;;;18.00;11.13;;;;;;;;;;5117699;28;20310;-82
2021/05/10 10:27:50;;;;;;;12.00;3.92;;;;;;;;;;5117651;28;20062;-82
2021/05/10 10:30:17;;;;;;;14.82;8.23;;;;;;;;;;5117784;28;20090;-82
2021/05/10 10:32:44;;;;;;;22.73;14.85;;;;;;;;;;5116663;27;20413;-82
2021/05/10 10:35:11;;;;;;;19.20;10.90;;;;;;;;;;5117573;28;20069;-81
2021/05/10 10:37:37;;;;;;;11.32;4.53;;;;;;;;;;5116688;28;20023;-82
2021/05/10 10:40:15;;;;;;;14.88;7.38;;;;;;;;;;5117756;28;20043;-82
2021/05/10 10:42:41;;;;;;;10.00;4.18;;;;;;;;;;5117787;28;20027;-82
2021/05/10 10:45:10;;;;;;;12.00;6.80;;;;;;;;;;5117854;28;20016;-82
2021/05/10 10:47:44;;;;;;;9.18;6.10;;;;;;;;;;5116771;28;20047;-83
2021/05/10 10:50:16;;;;;;;12.40;6.45;;;;;;;;;;5116455;28;20076;-82
2021/05/10 10:52:47;;;;;;;10.98;6.25;;;;;;;;;;5117410;28;20065;-82
2021/05/10 10:55:16;;;;;;;13.77;9.70;;;;;;;;;;5117454;28;20032;-82
2021/05/10 10:57:42;;;;;;;13.32;5.90;;;;;;;;;;5116387;28;20024;-83
2021/05/10 11:00:10;;;;;;;12.35;7.38;;;;;;;;;;5117489;28;20028;-83
2021/05/10 11:02:44;;;;;;;9.38;6.05;;;;;;;;;;5117423;28;20095;-83
2021/05/10 11:05:14;;;;;;;9.40;5.78;;;;;;;;;;5117236;28;20083;-83
2021/05/10 11:08:09;;;;;;;17.95;8.45;;;;;;;;;;5117050;28;20043;-83
2021/05/10 11:10:52;;;;;;;8.93;4.43;;;;;;;;;;5117258;28;20035;-82
2021/05/10 11:15:54;;;;;;;15.30;6.32;;;;;;;;;;5117423;28;20015;-83
2021/05/10 11:18:33;;;;;;;9.82;3.90;;;;;;;;;;5117012;28;20401;-82
2021/05/10 11:20:59;;;;;;;6.65;3.20;;;;;;;;;;5117174;28;20405;-82
2021/05/10 11:23:26;;;;;;;7.53;3.38;;;;;;;;;;5116158;28;20118;-82
2021/05/10 11:25:52;;;;;;;7.90;4.13;;;;;;;;;;5096700;28;20062;-82
2021/05/10 11:28:28;;;;;;;5.28;2.95;;;;;;;;;;5096813;28;20042;-82
2021/05/10 11:30:55;;;;;;;14.35;3.83;;;;;;;;;;5096575;28;20028;-81
2021/05/10 11:33:40;;;;;;;14.35;5.65;;;;;;;;;;5096827;28;20016;-82
2021/05/10 11:36:06;;;;;;;4.40;3.17;;;;;;;;;;5096876;28;20103;-82
2021/05/10 11:38:32;;;;;;;7.50;3.00;;;;;;;;;;5099094;28;20024;-82
2021/05/10 11:40:58;;;;;;;10.07;3.38;;;;;;;;;;5100560;28;20039;-82
2021/05/10 11:43:24;;;;;;;11.25;3.40;;;;;;;;;;5100333;28;20398;-82
2021/05/10 11:45:51;;;;;;;7.53;3.03;;;;;;;;;;5099595;28;20406;-82
2021/05/10 11:48:40;;;;;;;6.88;3.28;;;;;;;;;;5099230;28;20044;-82
2021/05/10 11:51:22;;;;;;;7.07;3.47;;;;;;;;;;5100270;28;20035;-82
2021/05/10 11:53:58;;;;;;;13.20;6.13;;;;;;;;;;5100296;28;20043;-82
2021/05/10 11:56:28;;;;;;;22.13;14.43;;;;;;;;;;5099209;28;20016;-82
2021/05/10 11:59:22;;;;;;;15.95;7.18;;;;;;;;;;5100153;28;20111;-82
2021/05/10 12:01:43;;;;;;;9.60;4.78;;;;;;;;;;5099929;28;20027;-82
2021/05/10 12:04:19;;;;;;;21.30;6.22;;;;;;;;;;5099002;28;20481;-82
2021/05/10 12:06:45;;;;;;;14.43;5.22;;;;;;;;;;5099725;28;20048;-82
2021/05/10 12:09:30;;;;;;;9.80;5.13;;;;;;;;;;5099868;28;20086;-82
2021/05/10 12:11:57;;;;;;;10.38;3.88;;;;;;;;;;5099854;28;20024;-82
2021/05/10 12:14:23;;;;;;;7.30;4.03;;;;;;;;;;5099896;28;20032;-83
2021/05/10 12:17:07;;;;;;;9.48;4.28;;;;;;;;;;5099843;28;20398;-82
2021/05/10 12:19:52;;;;;;;12.38;5.75;;;;;;;;;;5098838;28;20020;-82
2021/05/10 12:22:19;;;;;;;8.80;3.03;;;;;;;;;;5099847;28;20020;-82
2021/05/10 12:24:59;;;;;;;4.57;2.75;;;;;;;;;;5101177;28;20028;-82
2021/05/10 12:27:26;;;;;;;7.35;3.40;;;;;;;;;;5106124;28;20047;-82
2021/05/10 12:29:52;;;;;;;10.05;2.80;;;;;;;;;;5100965;28;20059;-82
2021/05/10 12:32:18;;;;;;;7.22;2.75;;;;;;;;;;5099398;28;20020;-82
2021/05/10 12:34:45;;;;;;;5.35;2.40;;;;;;;;;;5099726;28;20043;-82
2021/05/10 12:37:11;;;;;;;6.80;2.63;;;;;;;;;;5099519;28;20031;-82
2021/05/10 12:39:37;;;;;;;8.60;2.72;;;;;;;;;;5099589;28;20029;-81
2021/05/10 12:42:17;;;;;;;8.50;3.10;;;;;;;;;;5099302;28;20036;-80
2021/05/10 12:44:43;;;;;;;5.82;2.90;;;;;;;;;;5099355;28;20056;-81
2021/05/10 12:47:09;;;;;;;10.98;3.20;;;;;;;;;;5099007;28;20456;-81
2021/05/10 12:49:43;;;;;;;5.78;2.90;;;;;;;;;;5097848;28;20038;-80
2021/05/10 12:52:09;;;;;;;8.07;3.25;;;;;;;;;;5099000;28;20041;-81
2021/05/10 12:54:42;;;;;;;7.80;4.25;;;;;;;;;;5097986;28;20115;-81
2021/05/10 12:57:08;;;;;;;11.02;4.75;;;;;;;;;;5098885;28;20025;-80
2021/05/10 13:00:00;;;;;;;8.68;4.82;;;;;;;;;;5098074;28;20024;-81
2021/05/10 13:02:26;;;;;;;13.75;3.78;;;;;;;;;;5096965;28;20344;-81
2021/05/10 13:04:52;;;;;;;9.07;4.18;;;;;;;;;;5098015;28;20360;-81
2021/05/10 13:07:19;;;;;;;8.25;3.53;;;;;;;;;;5098378;28;20307;-81
2021/05/10 13:09:45;;;;;;;6.80;3.20;;;;;;;;;;5099021;28;20410;-79
2021/05/10 13:12:13;;;;;;;8.93;3.30;;;;;;;;;;5098609;28;20036;-80
2021/05/10 13:14:50;;;;;;;10.45;3.70;;;;;;;;;;5098666;28;20111;-81
2021/05/10 13:36:25;;;;;;;7.43;3.10;;;;;;;;;;5056099;28;20032;-80
2021/05/10 13:38:51;;;;;;;7.05;3.22;;;;;;;;;;5039501;28;20056;-80
2021/05/10 13:41:19;;;;;;;8.93;3.65;;;;;;;;;;5056100;28;20033;-80
2021/05/10 13:43:55;;;;;;;11.00;3.67;;;;;;;;;;5056130;28;20442;-80
2021/05/10 13:46:40;;;;;;;5.40;2.90;;;;;;;;;;5056085;28;20059;-81
2021/05/10 13:49:06;;;;;;;5.10;2.95;;;;;;;;;;5039208;28;20041;-81
2021/05/10 13:51:33;;;;;;;4.25;2.85;;;;;;;;;;5055745;28;20033;-81
2021/05/10 13:54:02;;;;;;;6.13;3.10;;;;;;;;;;5038801;28;20033;-81
2021/05/10 13:56:28;;;;;;;5.47;2.72;;;;;;;;;;5055565;28;20044;-80
2021/05/10 13:58:55;;;;;;;7.40;2.75;;;;;;;;;;5055639;28;20071;-77
2021/05/10 14:01:21;;;;;;;6.88;2.80;;;;;;;;;;5038163;28;20036;-81
2021/05/10 14:03:47;;;;;;;7.28;2.67;;;;;;;;;;5051905;28;20154;-81
2021/05/10 14:06:13;;;;;;;5.47;3.15;;;;;;;;;;5097635;28;20032;-81
2021/05/10 14:08:40;;;;;;;4.40;3.15;;;;;;;;;;5097685;28;20044;-80
2021/05/10 14:11:07;;;;;;;8.57;5.13;;;;;;;;;;5096781;28;20028;-81
2021/05/10 14:13:33;;;;;;;6.32;2.70;;;;;;;;;;5097533;28;20020;-81
2021/05/10 14:16:00;;;;;;;7.32;2.60;;;;;;;;;;5096935;28;20060;-80
2021/05/10 14:18:31;;;;;;;14.32;7.53;;;;;;;;;;5097590;28;20043;-81
2021/05/10 14:23:42;;;;;;;9.63;3.53;;;;;;;;;;5097849;28;20334;-81
2021/05/10 14:26:09;;;;;;;5.30;3.22;;;;;;;;;;5097271;28;20408;-80
2021/05/10 14:28:38;;;;;;;8.35;3.45;;;;;;;;;;5097641;28;20107;-81
2021/05/10 14:31:04;;;;;;;6.30;3.20;;;;;;;;;;5097342;28;20024;-82
2021/05/10 14:33:31;;;;;;;10.00;3.35;;;;;;;;;;5097012;28;20341;-81
2021/05/10 14:35:57;;;;;;;7.05;2.67;;;;;;;;;;5097316;28;20024;-81
2021/05/10 14:38:24;;;;;;;13.63;2.40;;;;;;;;;;5097260;28;20431;-81
2021/05/10 14:40:51;;;;;;;5.40;3.08;;;;;;;;;;5096416;28;20035;-81
2021/05/10 14:43:17;;;;;;;7.50;3.10;;;;;;;;;;5096854;28;20020;-82
2021/05/10 14:45:46;;;;;;;7.60;2.90;;;;;;;;;;5096456;28;20024;-81
2021/05/10 14:48:13;;;;;;;8.75;3.85;;;;;;;;;;5096928;28;20042;-88
2021/05/10 14:50:39;;;;;;;8.15;4.07;;;;;;;;;;5097128;28;20028;-81
2021/05/10 14:53:06;;;;;;;5.53;3.10;;;;;;;;;;5097314;28;20259;-81
2021/05/10 14:55:32;;;;;;;11.45;3.00;;;;;;;;;;5095938;28;20020;-81
2021/05/10 14:57:58;;;;;;;8.52;3.13;;;;;;;;;;5097004;28;20028;-81
2021/05/10 15:00:24;;;;;;;10.00;3.47;;;;;;;;;;5097194;28;20119;-81
2021/05/10 15:02:50;;;;;;;11.65;3.50;;;;;;;;;;5096564;28;20020;-82
2021/05/10 15:05:16;;;;;;;5.53;2.70;;;;;;;;;;5097252;28;20166;-82
2021/05/10 15:07:42;;;;;;;8.75;3.65;;;;;;;;;;5096826;28;20048;-81
2021/05/10 15:10:09;;;;;;;9.65;3.40;;;;;;;;;;5096828;28;20052;-81
2021/05/10 15:12:35;;;;;;;9.93;5.45;;;;;;;;;;5096789;28;20032;-81
2021/05/10 15:15:01;;;;;;;8.07;3.25;;;;;;;;;;5101104;28;20321;-81
2021/05/10 15:17:27;;;;;;;6.50;3.35;;;;;;;;;;5101009;28;20026;-82